createdAt,value
2018-08-08T00:00:28.124Z,22.96
2018-08-08T00:02:59.813Z,22.99
2018-08-08T00:05:31.114Z,23.05
2018-08-08T00:08:02.448Z,22.93
2018-08-08T00:10:33.846Z,22.82
2018-08-08T00:13:05.316Z,22.51
2018-08-08T00:15:36.363Z,22.65
2018-08-08T00:18:07.809Z,22.77
2018-08-08T00:20:38.994Z,22.81
2018-08-08T00:23:10.348Z,22.84
2018-08-08T00:25:41.019Z,22.70
2018-08-08T00:28:11.473Z,22.65
2018-08-08T00:30:43.116Z,22.72
2018-08-08T00:33:14.484Z,22.70
2018-08-08T00:35:45.765Z,22.66
2018-08-08T00:38:16.628Z,22.62
2018-08-08T00:40:47.724Z,22.21
2018-08-08T00:43:19.053Z,22.25
2018-08-08T00:45:50.217Z,22.34
2018-08-08T00:48:21.334Z,22.46
2018-08-08T00:50:52.450Z,22.49
2018-08-08T00:53:24.076Z,22.50
2018-08-08T00:55:55.281Z,22.51
2018-08-08T00:58:26.673Z,22.42
2018-08-08T01:00:58.174Z,22.18
2018-08-08T01:03:29.817Z,22.17
2018-08-08T01:06:01.104Z,22.16
2018-08-08T01:08:32.255Z,22.10
2018-08-08T01:11:03.555Z,22.15
2018-08-08T01:13:34.711Z,22.12
2018-08-08T01:16:06.174Z,21.98
2018-08-08T01:18:37.218Z,21.68
2018-08-08T01:21:08.641Z,21.72
2018-08-08T01:23:38.952Z,21.88
2018-08-08T01:26:09.869Z,22.06
2018-08-08T01:29:55.460Z,22.04
2018-08-08T01:32:26.605Z,21.84
2018-08-08T01:34:57.978Z,21.78
2018-08-08T01:37:29.307Z,21.62
2018-08-08T01:40:00.222Z,21.69
2018-08-08T01:42:31.277Z,21.68
2018-08-08T01:45:02.485Z,21.69
2018-08-08T01:47:33.557Z,21.71
2018-08-08T01:50:04.516Z,21.71
2018-08-08T01:52:36.075Z,21.71
2018-08-08T01:55:07.095Z,21.66
2018-08-08T01:57:37.498Z,21.55
2018-08-08T02:00:10.606Z,21.51
2018-08-08T02:02:42.273Z,21.47
2018-08-08T02:05:13.218Z,21.46
2018-08-08T02:07:44.504Z,21.54
2018-08-08T02:10:22.324Z,21.54
2018-08-08T02:12:53.054Z,21.30
2018-08-08T02:15:24.132Z,21.24
2018-08-08T02:17:55.663Z,21.20
2018-08-08T02:20:26.405Z,21.01
2018-08-08T02:22:57.513Z,20.96
2018-08-08T02:25:29.066Z,21.07
2018-08-08T02:28:00.273Z,21.17
2018-08-08T02:30:31.286Z,21.25
2018-08-08T02:33:02.450Z,21.16
2018-08-08T02:35:33.353Z,21.06
2018-08-08T02:38:04.569Z,21.03
2018-08-08T02:40:36.299Z,20.88
2018-08-08T02:43:07.468Z,20.76
2018-08-08T02:45:38.744Z,20.76
2018-08-08T02:48:11.056Z,20.79
2018-08-08T02:50:42.149Z,20.94
2018-08-08T02:53:13.244Z,20.90
2018-08-08T02:55:43.778Z,20.93
2018-08-08T02:58:14.917Z,20.87
2018-08-08T03:00:46.055Z,20.88
2018-08-08T03:03:17.226Z,20.78
2018-08-08T03:05:49.120Z,20.77
2018-08-08T03:08:20.716Z,20.62
2018-08-08T03:10:51.765Z,20.41
2018-08-08T03:13:23.153Z,20.38
2018-08-08T03:15:54.905Z,20.33
2018-08-08T03:18:25.832Z,20.10
2018-08-08T03:20:56.491Z,20.03
2018-08-08T03:23:27.686Z,20.10
2018-08-08T03:25:59.039Z,20.02
2018-08-08T03:28:30.054Z,20.14
2018-08-08T03:31:01.784Z,20.03
2018-08-08T03:33:32.475Z,20.26
2018-08-08T03:36:03.708Z,20.47
2018-08-08T03:38:34.996Z,20.61
2018-08-08T03:41:06.538Z,20.57
2018-08-08T03:43:38.122Z,20.32
2018-08-08T03:46:09.758Z,20.17
2018-08-08T03:48:41.547Z,20.26
2018-08-08T03:51:12.458Z,20.22
2018-08-08T03:53:44.128Z,20.19
2018-08-08T03:56:14.450Z,20.29
2018-08-08T03:58:45.639Z,20.59
2018-08-08T04:01:17.231Z,20.70
2018-08-08T04:03:48.641Z,20.76
2018-08-08T04:06:20.124Z,20.92
2018-08-08T04:08:51.784Z,20.90
2018-08-08T04:11:23.070Z,21.03
2018-08-08T04:13:54.754Z,21.03
2018-08-08T04:16:25.978Z,21.00
2018-08-08T04:18:57.281Z,21.11
2018-08-08T04:21:28.050Z,21.23
2018-08-08T04:23:58.868Z,21.29
2018-08-08T04:26:30.444Z,21.23
2018-08-08T04:29:01.862Z,21.04
2018-08-08T04:31:33.277Z,21.31
2018-08-08T04:34:04.162Z,21.51
2018-08-08T04:36:34.644Z,21.69
2018-08-08T04:39:07.040Z,21.75
2018-08-08T04:41:37.605Z,21.60
2018-08-08T04:44:09.060Z,21.83
2018-08-08T04:46:40.311Z,22.01
2018-08-08T04:49:11.200Z,21.96
2018-08-08T04:51:42.743Z,21.99
2018-08-08T04:54:14.165Z,22.22
2018-08-08T04:56:45.244Z,22.53
2018-08-08T04:59:15.627Z,22.81
2018-08-08T05:01:47.591Z,23.07
2018-08-08T05:04:18.290Z,23.14
2018-08-08T05:06:49.273Z,23.52
2018-08-08T05:09:20.472Z,23.72
2018-08-08T05:11:51.290Z,23.89
2018-08-08T05:14:21.687Z,24.40
2018-08-08T05:16:52.090Z,24.58
2018-08-08T05:19:22.876Z,24.61
2018-08-08T05:21:53.283Z,24.84
2018-08-08T05:24:23.724Z,25.03
2018-08-08T05:26:54.161Z,25.02
2018-08-08T05:29:24.761Z,25.01
2018-08-08T05:31:55.386Z,25.09
2018-08-08T05:34:26.147Z,24.97
2018-08-08T05:36:56.343Z,25.15
2018-08-08T05:39:26.252Z,25.38
2018-08-08T05:41:56.793Z,25.52
2018-08-08T05:44:26.721Z,25.75
2018-08-08T05:46:57.230Z,26.00
2018-08-08T05:49:28.016Z,26.43
2018-08-08T05:51:57.863Z,26.59
2018-08-08T05:54:28.129Z,26.84
2018-08-08T05:56:58.169Z,27.17
2018-08-08T05:59:28.973Z,27.10
2018-08-08T06:01:59.271Z,27.22
2018-08-08T06:04:29.147Z,27.29
2018-08-08T06:06:59.944Z,27.25
2018-08-08T06:09:30.361Z,27.09
2018-08-08T06:12:01.436Z,27.10
2018-08-08T06:14:32.697Z,27.02
2018-08-08T06:17:02.737Z,27.10
2018-08-08T06:19:33.465Z,27.17
2018-08-08T06:22:04.040Z,27.44
2018-08-08T06:24:34.404Z,27.73
2018-08-08T06:27:04.964Z,28.08
2018-08-08T06:29:35.494Z,28.17
2018-08-08T06:32:05.406Z,28.14
2018-08-08T06:34:36.282Z,28.16
2018-08-08T06:37:06.772Z,28.18
2018-08-08T06:39:37.403Z,28.27
2018-08-08T06:42:08.163Z,28.46
2018-08-08T06:44:38.934Z,28.43
2018-08-08T06:47:09.830Z,28.03
2018-08-08T06:49:40.154Z,28.05
2018-08-08T06:52:10.737Z,28.49
2018-08-08T06:54:41.314Z,28.38
2018-08-08T06:57:11.781Z,28.40
2018-08-08T06:59:42.494Z,28.55
2018-08-08T07:02:13.065Z,28.62
2018-08-08T07:04:43.688Z,28.76
2018-08-08T07:07:13.989Z,29.07
2018-08-08T07:09:44.738Z,29.27
2018-08-08T07:12:15.385Z,29.61
2018-08-08T07:14:46.681Z,29.98
2018-08-08T07:17:17.098Z,30.00
2018-08-08T07:19:47.644Z,29.93
2018-08-08T07:22:18.261Z,29.99
2018-08-08T07:24:49.218Z,30.32
2018-08-08T07:27:19.768Z,30.56
2018-08-08T07:29:50.541Z,30.92
2018-08-08T07:32:21.247Z,30.89
2018-08-08T07:34:51.780Z,31.01
2018-08-08T07:37:21.689Z,30.99
2018-08-08T07:39:52.230Z,31.25
2018-08-08T07:42:22.653Z,31.58
2018-08-08T07:44:52.998Z,31.99
2018-08-08T07:47:23.652Z,32.29
2018-08-08T07:49:54.021Z,31.75
2018-08-08T07:52:24.794Z,31.90
2018-08-08T07:54:55.137Z,32.01
2018-08-08T07:57:25.954Z,32.11
2018-08-08T07:59:55.928Z,32.62
2018-08-08T08:02:26.592Z,32.92
2018-08-08T08:04:56.645Z,32.98
2018-08-08T08:07:27.287Z,33.22
2018-08-08T08:09:57.887Z,33.59
2018-08-08T08:12:28.596Z,33.88
2018-08-08T08:14:59.461Z,34.20
2018-08-08T08:17:30.284Z,34.05
2018-08-08T08:20:00.907Z,33.88
2018-08-08T08:22:30.991Z,33.37
2018-08-08T08:25:01.722Z,32.79
2018-08-08T08:27:32.064Z,33.20
2018-08-08T08:30:02.075Z,33.62
2018-08-08T08:32:32.638Z,34.17
2018-08-08T08:35:03.329Z,34.12
2018-08-08T08:37:34.508Z,34.11
2018-08-08T08:40:05.605Z,34.16
2018-08-08T08:42:36.367Z,34.84
2018-08-08T08:45:07.576Z,34.43
2018-08-08T08:47:39.154Z,34.51
2018-08-08T08:50:10.267Z,34.67
2018-08-08T08:52:41.088Z,35.04
2018-08-08T08:55:11.773Z,35.17
2018-08-08T08:57:41.744Z,35.38
2018-08-08T09:00:13.780Z,35.07
2018-08-08T09:02:44.800Z,34.79
2018-08-08T09:05:15.001Z,34.80
2018-08-08T09:07:45.576Z,35.09
2018-08-08T09:10:16.138Z,35.16
2018-08-08T09:12:46.901Z,35.73
2018-08-08T09:15:16.815Z,36.28
2018-08-08T09:17:47.362Z,36.29
2018-08-08T09:20:18.277Z,35.74
2018-08-08T09:22:49.444Z,35.65
2018-08-08T09:25:20.827Z,35.61
2018-08-08T09:27:51.460Z,35.57
2018-08-08T09:30:21.518Z,35.69
2018-08-08T09:32:51.441Z,35.81
2018-08-08T09:35:22.390Z,36.15
2018-08-08T09:37:52.619Z,36.43
2018-08-08T09:40:23.608Z,36.73
2018-08-08T09:42:54.455Z,36.51
2018-08-08T09:45:25.279Z,36.41
2018-08-08T09:47:55.111Z,36.49
2018-08-08T09:50:26.129Z,36.68
2018-08-08T09:52:56.630Z,36.22
2018-08-08T09:55:27.124Z,36.20
2018-08-08T09:57:57.679Z,35.86
2018-08-08T10:00:33.268Z,35.75
2018-08-08T10:03:12.681Z,35.21
2018-08-08T10:05:43.327Z,34.84
2018-08-08T10:08:13.795Z,35.22
2018-08-08T10:10:44.252Z,35.67
2018-08-08T10:13:15.033Z,35.57
2018-08-08T10:15:44.963Z,35.89
2018-08-08T10:18:15.829Z,36.11
2018-08-08T10:20:46.439Z,36.13
2018-08-08T10:23:16.953Z,36.28
2018-08-08T10:25:47.725Z,36.73
2018-08-08T10:28:18.380Z,36.90
2018-08-08T10:30:48.750Z,37.09
2018-08-08T10:33:18.664Z,36.64
2018-08-08T10:35:49.321Z,36.29
2018-08-08T10:38:19.882Z,36.58
2018-08-08T10:40:50.707Z,36.68
2018-08-08T10:43:20.709Z,36.53
2018-08-08T10:45:51.487Z,36.67
2018-08-08T10:48:22.027Z,37.08
2018-08-08T10:50:53.410Z,37.22
2018-08-08T10:53:24.165Z,37.06
2018-08-08T10:55:55.004Z,36.94
2018-08-08T10:58:25.812Z,36.26
2018-08-08T11:00:56.383Z,36.08
2018-08-08T11:03:26.694Z,36.60
2018-08-08T11:05:57.690Z,36.42
2018-08-08T11:08:28.469Z,37.27
2018-08-08T11:10:59.035Z,37.95
2018-08-08T11:13:29.690Z,38.75
2018-08-08T11:16:00.327Z,37.68
2018-08-08T11:18:30.420Z,37.35
2018-08-08T11:21:00.227Z,37.34
2018-08-08T11:23:30.188Z,37.26
2018-08-08T11:26:00.165Z,37.36
2018-08-08T11:28:30.205Z,37.70
2018-08-08T11:31:00.306Z,37.77
2018-08-08T11:33:30.214Z,36.84
2018-08-08T11:36:00.095Z,35.55
2018-08-08T11:38:29.832Z,34.49
2018-08-08T11:40:59.658Z,34.31
2018-08-08T11:43:29.638Z,33.50
2018-08-08T11:45:59.502Z,33.59
2018-08-08T11:48:29.274Z,33.65
2018-08-08T11:50:59.060Z,33.68
2018-08-08T11:53:29.189Z,34.28
2018-08-08T11:55:59.026Z,35.66
2018-08-08T11:58:29.014Z,36.27
2018-08-08T12:00:58.805Z,36.88
2018-08-08T12:03:28.744Z,37.85
2018-08-08T12:05:58.812Z,37.91
2018-08-08T12:08:28.624Z,37.71
2018-08-08T12:10:58.468Z,37.44
2018-08-08T12:13:28.347Z,37.19
2018-08-08T12:15:58.110Z,37.10
2018-08-08T12:18:27.812Z,37.43
2018-08-08T12:20:57.579Z,38.04
2018-08-08T12:23:27.313Z,38.16
2018-08-08T12:25:57.740Z,37.73
2018-08-08T12:28:27.492Z,37.54
2018-08-08T12:30:57.312Z,38.08
2018-08-08T12:33:27.138Z,38.73
2018-08-08T12:35:57.007Z,39.24
2018-08-08T12:38:26.875Z,39.57
2018-08-08T12:40:56.675Z,39.45
2018-08-08T12:43:26.530Z,39.62
2018-08-08T12:45:56.292Z,39.62
2018-08-08T12:48:26.235Z,40.32
2018-08-08T12:50:59.295Z,39.97
2018-08-08T12:53:29.292Z,39.06
2018-08-08T12:55:59.116Z,38.81
2018-08-08T12:58:29.293Z,38.96
2018-08-08T13:00:59.179Z,38.39
2018-08-08T13:03:28.864Z,38.12
2018-08-08T13:05:58.634Z,37.72
2018-08-08T13:08:28.413Z,37.23
2018-08-08T13:10:58.203Z,36.84
2018-08-08T13:13:28.002Z,36.61
2018-08-08T13:15:57.768Z,36.62
2018-08-08T13:18:27.511Z,35.91
2018-08-08T13:20:58.348Z,35.25
2018-08-08T13:23:28.178Z,35.22
2018-08-08T13:25:58.065Z,35.47
2018-08-08T13:28:28.643Z,35.25
2018-08-08T13:30:58.875Z,35.01
2018-08-08T13:33:28.899Z,34.82
2018-08-08T13:35:58.731Z,34.74
2018-08-08T13:38:28.584Z,33.96
2018-08-08T13:40:58.380Z,33.21
2018-08-08T13:43:28.126Z,32.41
2018-08-08T13:45:57.899Z,31.83
2018-08-08T13:48:27.666Z,31.68
2018-08-08T13:50:57.426Z,31.47
2018-08-08T13:53:27.214Z,31.15
2018-08-08T13:55:56.970Z,31.01
2018-08-08T13:58:26.714Z,31.19
2018-08-08T14:00:56.404Z,31.29
2018-08-08T14:03:26.257Z,31.62
2018-08-08T14:05:55.985Z,32.21
2018-08-08T14:08:25.676Z,32.76
2018-08-08T14:10:55.446Z,33.00
2018-08-08T14:13:25.237Z,33.93
2018-08-08T14:15:55.028Z,34.99
2018-08-08T14:18:25.110Z,35.63
2018-08-08T14:20:54.812Z,36.24
2018-08-08T14:23:24.512Z,36.80
2018-08-08T14:25:54.239Z,37.17
2018-08-08T14:28:24.008Z,37.72
2018-08-08T14:30:53.706Z,36.63
2018-08-08T14:33:23.407Z,36.04
2018-08-08T14:35:53.163Z,35.24
2018-08-08T14:38:22.873Z,33.94
2018-08-08T14:40:52.617Z,34.35
2018-08-08T14:43:22.334Z,34.71
2018-08-08T14:45:54.149Z,35.23
2018-08-08T14:48:36.822Z,34.77
2018-08-08T14:51:06.583Z,33.70
2018-08-08T14:53:36.331Z,33.83
2018-08-08T14:56:08.664Z,34.17
2018-08-08T14:58:38.375Z,34.14
2018-08-08T15:01:08.070Z,34.03
2018-08-08T15:03:37.887Z,34.58
2018-08-08T15:06:07.739Z,35.16
2018-08-08T15:08:37.528Z,35.73
2018-08-08T15:11:07.326Z,36.02
2018-08-08T15:13:37.179Z,36.05
2018-08-08T15:16:06.966Z,36.28
2018-08-08T15:18:36.805Z,36.73
2018-08-08T15:21:06.535Z,36.55
2018-08-08T15:23:36.268Z,36.37
2018-08-08T15:26:06.111Z,36.47
2018-08-08T15:28:35.879Z,36.48
2018-08-08T15:31:05.766Z,36.05
2018-08-08T15:33:35.549Z,36.00
2018-08-08T15:36:05.455Z,36.19
2018-08-08T15:38:35.221Z,36.50
2018-08-08T15:41:05.101Z,36.78
2018-08-08T15:43:34.908Z,37.05
2018-08-08T15:46:04.786Z,37.65
2018-08-08T15:48:34.632Z,37.67
2018-08-08T15:51:04.447Z,37.50
2018-08-08T15:53:34.210Z,37.12
2018-08-08T15:56:04.122Z,37.10
2018-08-08T15:58:33.799Z,36.89
2018-08-08T16:01:03.696Z,36.75
2018-08-08T16:03:33.465Z,36.91
2018-08-08T16:06:03.288Z,36.92
2018-08-08T16:08:33.038Z,36.77
2018-08-08T16:11:02.961Z,36.69
2018-08-08T16:13:32.894Z,36.29
2018-08-08T16:16:02.739Z,36.35
2018-08-08T16:18:32.519Z,36.37
2018-08-08T16:21:02.237Z,36.68
2018-08-08T16:23:31.996Z,36.48
2018-08-08T16:26:01.913Z,36.24
2018-08-08T16:28:31.660Z,36.06
2018-08-08T16:31:01.531Z,36.07
2018-08-08T16:33:31.304Z,36.02
2018-08-08T16:36:01.067Z,35.48
2018-08-08T16:38:30.878Z,35.28
2018-08-08T16:41:00.631Z,35.16
2018-08-08T16:43:30.483Z,34.82
2018-08-08T16:46:00.276Z,34.41
2018-08-08T16:48:29.967Z,34.17
2018-08-08T16:50:59.795Z,33.89
2018-08-08T16:53:29.715Z,33.60
2018-08-08T16:55:59.792Z,33.28
2018-08-08T16:58:29.555Z,32.89
2018-08-08T17:00:59.344Z,32.47
2018-08-08T17:03:29.172Z,32.25
2018-08-08T17:05:58.955Z,32.21
2018-08-08T17:08:28.854Z,32.06
2018-08-08T17:10:58.656Z,31.82
2018-08-08T17:13:28.534Z,31.48
2018-08-08T17:15:58.379Z,31.28
2018-08-08T17:18:28.179Z,31.16
2018-08-08T17:20:57.946Z,30.90
2018-08-08T17:23:27.751Z,30.60
2018-08-08T17:25:57.642Z,30.50
2018-08-08T17:28:27.474Z,30.28
2018-08-08T17:30:57.333Z,29.99
2018-08-08T17:33:27.106Z,29.93
2018-08-08T17:35:56.881Z,29.75
2018-08-08T17:38:26.728Z,29.55
2018-08-08T17:40:56.475Z,29.37
2018-08-08T17:43:26.411Z,29.22
2018-08-08T17:45:56.207Z,29.11
2018-08-08T17:48:26.090Z,29.00
2018-08-08T17:50:55.869Z,28.90
2018-08-08T17:53:25.844Z,28.93
2018-08-08T17:55:55.684Z,28.89
2018-08-08T17:58:25.413Z,28.89
2018-08-08T18:00:55.271Z,28.84
2018-08-08T18:03:25.063Z,28.83
2018-08-08T18:18:56.294Z,28.98
2018-08-08T18:21:25.985Z,28.70
2018-08-08T18:23:55.922Z,28.57
2018-08-08T18:26:26.273Z,28.50
2018-08-08T18:28:56.242Z,28.45
2018-08-08T18:31:26.292Z,28.30
2018-08-08T18:33:56.192Z,28.27
2018-08-08T18:36:26.125Z,28.23
2018-08-08T18:38:55.974Z,28.20
2018-08-08T18:41:25.745Z,27.95
2018-08-08T18:43:55.785Z,27.47
2018-08-08T18:46:25.682Z,27.52
2018-08-08T18:48:55.492Z,27.54
2018-08-08T18:51:25.515Z,27.62
2018-08-08T18:53:55.486Z,27.69
2018-08-08T18:56:25.444Z,27.60
2018-08-08T18:58:55.201Z,27.65
2018-08-08T19:01:25.154Z,27.66
2018-08-08T19:03:55.156Z,27.62
2018-08-08T19:06:25.088Z,27.46
2018-08-08T19:08:54.975Z,27.49
2018-08-08T19:11:24.944Z,27.41
2018-08-08T19:13:54.941Z,27.43
2018-08-08T19:16:24.845Z,27.38
2018-08-08T19:18:54.605Z,27.25
2018-08-08T19:21:24.466Z,27.21
2018-08-08T19:23:54.328Z,27.14
2018-08-08T19:26:24.217Z,27.02
2018-08-08T19:28:54.130Z,26.97
2018-08-08T19:31:24.066Z,26.75
2018-08-08T19:33:54.258Z,26.63
2018-08-08T19:36:24.247Z,26.48
2018-08-08T19:38:54.172Z,26.52
2018-08-08T19:41:23.967Z,26.44
2018-08-08T19:43:53.905Z,26.44
2018-08-08T19:46:23.754Z,26.53
2018-08-08T19:48:53.768Z,26.55
2018-08-08T19:51:23.657Z,26.37
2018-08-08T19:53:53.510Z,26.32
2018-08-08T19:56:23.788Z,26.39
2018-08-08T19:58:53.697Z,26.26
2018-08-08T20:01:23.560Z,26.18
2018-08-08T20:03:53.717Z,25.99
2018-08-08T20:06:23.781Z,25.98
2018-08-08T20:08:53.677Z,25.94
2018-08-08T20:11:23.531Z,25.95
2018-08-08T20:13:54.646Z,25.88
2018-08-08T20:16:25.698Z,25.80
2018-08-08T20:18:57.190Z,25.79
2018-08-08T20:21:27.307Z,25.76
2018-08-08T20:23:57.675Z,25.74
2018-08-08T20:26:28.773Z,25.78
2018-08-08T20:29:00.071Z,25.91
2018-08-08T20:31:31.262Z,25.96
2018-08-08T20:34:02.736Z,25.85
2018-08-08T20:36:33.722Z,25.74
2018-08-08T20:39:07.330Z,25.67
2018-08-08T20:41:38.525Z,25.58
2018-08-08T20:44:09.911Z,25.47
2018-08-08T20:46:40.808Z,25.43
2018-08-08T20:49:12.293Z,25.43
2018-08-08T20:51:42.701Z,25.28
2018-08-08T20:54:13.348Z,25.24
2018-08-08T20:56:44.002Z,25.24
2018-08-08T20:59:14.753Z,25.21
2018-08-08T21:01:47.068Z,25.21
2018-08-08T21:04:18.006Z,25.18
2018-08-08T21:06:48.718Z,25.21
2018-08-08T21:09:19.523Z,25.25
2018-08-08T21:11:50.135Z,25.23
2018-08-08T21:14:21.095Z,25.23
2018-08-08T21:16:52.862Z,25.16
2018-08-08T21:19:23.498Z,25.07
2018-08-08T21:21:53.456Z,24.98
2018-08-08T21:24:23.937Z,24.90
2018-08-08T21:27:12.779Z,24.83
2018-08-08T21:29:43.559Z,24.83
2018-08-08T21:32:14.986Z,24.84
2018-08-08T21:34:45.533Z,24.63
2018-08-08T21:37:16.437Z,24.65
2018-08-08T21:39:47.242Z,24.65
2018-08-08T21:42:17.903Z,24.72
2018-08-08T21:44:49.051Z,24.75
2018-08-08T21:47:19.774Z,24.73
2018-08-08T21:49:50.827Z,24.60
2018-08-08T21:52:21.532Z,24.59
2018-08-08T21:56:05.971Z,24.53
2018-08-08T21:59:45.892Z,24.39
2018-08-08T22:02:27.322Z,24.15
2018-08-08T22:05:08.851Z,24.03
2018-08-08T22:07:50.340Z,24.06
2018-08-08T22:10:31.321Z,24.06
2018-08-08T22:13:12.496Z,24.04
2018-08-08T22:15:53.765Z,23.95
2018-08-08T22:19:40.000Z,23.84
2018-08-08T22:22:10.228Z,23.80
2018-08-08T22:24:40.864Z,23.76
2018-08-08T22:27:11.358Z,23.80
2018-08-08T22:29:42.092Z,23.83
2018-08-08T22:32:12.961Z,23.87
2018-08-08T22:34:44.241Z,23.70
2018-08-08T22:37:14.917Z,23.67
2018-08-08T22:39:45.715Z,23.74
2018-08-08T22:42:16.241Z,23.57
2018-08-08T22:44:46.735Z,23.53
2018-08-08T22:47:17.838Z,23.29
2018-08-08T22:49:48.171Z,23.19
2018-08-08T22:52:18.694Z,23.13
2018-08-08T22:54:50.138Z,23.23
2018-08-08T22:57:20.015Z,23.37
2018-08-08T22:59:50.793Z,23.34
2018-08-08T23:02:21.158Z,23.07
2018-08-08T23:04:51.941Z,22.96
2018-08-08T23:07:22.513Z,23.04
2018-08-08T23:09:53.369Z,22.97
2018-08-08T23:12:24.098Z,23.13
2018-08-08T23:14:54.824Z,23.22
2018-08-08T23:17:25.469Z,23.19
2018-08-08T23:19:56.292Z,23.21
2018-08-08T23:22:37.636Z,23.10
2018-08-08T23:25:08.531Z,23.13
2018-08-08T23:27:39.160Z,23.11
2018-08-08T23:30:09.640Z,23.01
2018-08-08T23:32:41.246Z,23.03
2018-08-08T23:35:12.078Z,23.09
2018-08-08T23:37:43.013Z,23.01
2018-08-08T23:40:13.837Z,22.89
2018-08-08T23:42:44.131Z,22.83
2018-08-08T23:45:14.842Z,22.84
2018-08-08T23:47:45.635Z,22.95
2018-08-08T23:50:16.424Z,22.90
2018-08-08T23:52:47.180Z,22.91
2018-08-08T23:55:17.884Z,22.88
2018-08-08T23:57:48.265Z,23.00
